Terminal Aerodrome Forecast
Issued by NWS Jackson, KY

Home | Current Version | Previous Version | Text Only | Print | Product List | Glossary On
Versions: 1 2 3 4 5 6 7 8 9 10 11 12 13 14
000
FTUS43 KJKL 261700
TAFLOZ
TAF
KLOZ 261739Z 2618/2718 VRB05KT P6SM SCT040 BKN120
     FM270300 VRB04KT P6SM VCSH BKN040
     FM270430 VRB04KT 5SM -SNRA BR SCT015 OVC025
     FM270600 VRB05KT 2SM -RASN BR BKN015
     FM271300 VRB04KT P6SM BKN015=

USA.gov is the U.S. government's official web portal to all federal, state and local government web resources and services.